sensor_id;sensor_type;location;lat;lon;timestamp;temperature;humidity
3860;DHT22;1945;52.036;8.614;2023-02-28T00:01:14;-1.30;1.00
3860;DHT22;1945;52.036;8.614;2023-02-28T00:03:41;-1.30;1.00
3860;DHT22;1945;52.036;8.614;2023-02-28T00:06:08;-1.30;1.00
3860;DHT22;1945;52.036;8.614;2023-02-28T00:08:36;-1.30;1.00
3860;DHT22;1945;52.036;8.614;2023-02-28T00:11:05;-1.30;1.00
3860;DHT22;1945;52.036;8.614;2023-02-28T00:13:34;-1.30;1.00
3860;DHT22;1945;52.036;8.614;2023-02-28T00:16:03;-1.10;1.00
3860;DHT22;1945;52.036;8.614;2023-02-28T00:18:30;-1.30;1.00
3860;DHT22;1945;52.036;8.614;2023-02-28T00:20:57;-0.70;1.00
3860;DHT22;1945;52.036;8.614;2023-02-28T00:23:24;-0.80;1.00
3860;DHT22;1945;52.036;8.614;2023-02-28T00:25:51;-1.30;1.00
3860;DHT22;1945;52.036;8.614;2023-02-28T00:28:19;-1.20;1.00
3860;DHT22;1945;52.036;8.614;2023-02-28T00:30:46;-1.20;1.00
3860;DHT22;1945;52.036;8.614;2023-02-28T00:33:13;-0.70;1.00
3860;DHT22;1945;52.036;8.614;2023-02-28T00:35:39;-0.70;1.00
3860;DHT22;1945;52.036;8.614;2023-02-28T00:38:06;-0.90;1.00
3860;DHT22;1945;52.036;8.614;2023-02-28T00:40:32;-1.30;1.00
3860;DHT22;1945;52.036;8.614;2023-02-28T00:42:59;-1.30;1.00
3860;DHT22;1945;52.036;8.614;2023-02-28T00:45:27;-0.90;1.00
3860;DHT22;1945;52.036;8.614;2023-02-28T00:47:54;-1.30;1.00
3860;DHT22;1945;52.036;8.614;2023-02-28T00:50:21;-0.90;1.00
3860;DHT22;1945;52.036;8.614;2023-02-28T00:52:48;-1.40;1.00
3860;DHT22;1945;52.036;8.614;2023-02-28T00:55:15;-1.40;1.00
3860;DHT22;1945;52.036;8.614;2023-02-28T00:57:41;-1.40;1.00
3860;DHT22;1945;52.036;8.614;2023-02-28T01:00:09;-0.90;1.00
3860;DHT22;1945;52.036;8.614;2023-02-28T01:02:37;-1.50;1.00
3860;DHT22;1945;52.036;8.614;2023-02-28T01:05:05;-1.50;1.00
3860;DHT22;1945;52.036;8.614;2023-02-28T01:07:31;-1.50;1.00
3860;DHT22;1945;52.036;8.614;2023-02-28T01:09:58;-1.50;1.00
3860;DHT22;1945;52.036;8.614;2023-02-28T01:12:25;-0.90;1.00
3860;DHT22;1945;52.036;8.614;2023-02-28T01:14:51;-1.10;1.00
3860;DHT22;1945;52.036;8.614;2023-02-28T01:17:18;-1.60;1.00
3860;DHT22;1945;52.036;8.614;2023-02-28T01:19:46;-1.10;1.00
3860;DHT22;1945;52.036;8.614;2023-02-28T01:22:12;-1.70;1.00
3860;DHT22;1945;52.036;8.614;2023-02-28T01:24:39;-1.30;1.00
3860;DHT22;1945;52.036;8.614;2023-02-28T01:27:06;-1.00;1.00
3860;DHT22;1945;52.036;8.614;2023-02-28T01:29:32;-1.80;1.00
3860;DHT22;1945;52.036;8.614;2023-02-28T01:31:59;-1.20;1.00
3860;DHT22;1945;52.036;8.614;2023-02-28T01:34:25;-1.60;1.00
3860;DHT22;1945;52.036;8.614;2023-02-28T01:36:53;-1.60;1.00
3860;DHT22;1945;52.036;8.614;2023-02-28T01:39:20;-1.30;1.00
3860;DHT22;1945;52.036;8.614;2023-02-28T01:41:47;-1.90;1.00
3860;DHT22;1945;52.036;8.614;2023-02-28T01:45:07;-1.40;1.00
3860;DHT22;1945;52.036;8.614;2023-02-28T01:47:42;-1.90;1.00
3860;DHT22;1945;52.036;8.614;2023-02-28T01:50:14;-2.00;1.00
3860;DHT22;1945;52.036;8.614;2023-02-28T01:52:43;-2.00;1.00
3860;DHT22;1945;52.036;8.614;2023-02-28T01:55:11;-1.70;1.00
3860;DHT22;1945;52.036;8.614;2023-02-28T01:57:40;-1.50;1.00
3860;DHT22;1945;52.036;8.614;2023-02-28T02:00:11;-2.10;1.00
3860;DHT22;1945;52.036;8.614;2023-02-28T02:02:41;-2.10;1.00
3860;DHT22;1945;52.036;8.614;2023-02-28T02:05:10;-2.10;1.00
3860;DHT22;1945;52.036;8.614;2023-02-28T02:07:38;-2.10;1.00
3860;DHT22;1945;52.036;8.614;2023-02-28T02:10:12;-2.20;1.00
3860;DHT22;1945;52.036;8.614;2023-02-28T02:15:34;-2.30;1.00
3860;DHT22;1945;52.036;8.614;2023-02-28T02:18:06;-2.30;1.00
3860;DHT22;1945;52.036;8.614;2023-02-28T02:20:51;-2.30;1.00
3860;DHT22;1945;52.036;8.614;2023-02-28T02:23:56;-2.30;1.00
3860;DHT22;1945;52.036;8.614;2023-02-28T02:26:54;-2.30;1.00
3860;DHT22;1945;52.036;8.614;2023-02-28T02:32:57;-2.30;1.00
3860;DHT22;1945;52.036;8.614;2023-02-28T02:35:31;-2.30;1.00
3860;DHT22;1945;52.036;8.614;2023-02-28T02:38:07;-1.80;1.00
3860;DHT22;1945;52.036;8.614;2023-02-28T02:40:38;-2.40;1.00
3860;DHT22;1945;52.036;8.614;2023-02-28T02:43:13;-1.90;1.00
3860;DHT22;1945;52.036;8.614;2023-02-28T02:45:44;-2.40;1.00
3860;DHT22;1945;52.036;8.614;2023-02-28T02:48:15;-2.50;1.00
3860;DHT22;1945;52.036;8.614;2023-02-28T02:50:46;-2.00;1.00
3860;DHT22;1945;52.036;8.614;2023-02-28T02:53:18;-1.90;1.00
3860;DHT22;1945;52.036;8.614;2023-02-28T02:55:49;-2.10;1.00
3860;DHT22;1945;52.036;8.614;2023-02-28T02:58:23;-2.00;1.00
3860;DHT22;1945;52.036;8.614;2023-02-28T03:00:53;-2.10;1.00
3860;DHT22;1945;52.036;8.614;2023-02-28T03:03:21;-2.00;1.00
3860;DHT22;1945;52.036;8.614;2023-02-28T03:05:56;-2.70;26.10
3860;DHT22;1945;52.036;8.614;2023-02-28T03:08:23;-2.00;53.00
3860;DHT22;1945;52.036;8.614;2023-02-28T03:10:51;-2.30;43.60
3860;DHT22;1945;52.036;8.614;2023-02-28T03:13:37;-2.20;71.20
3860;DHT22;1945;52.036;8.614;2023-02-28T03:16:23;-2.70;40.80
3860;DHT22;1945;52.036;8.614;2023-02-28T03:19:01;-2.70;46.80
3860;DHT22;1945;52.036;8.614;2023-02-28T03:21:34;-2.80;1.00
3860;DHT22;1945;52.036;8.614;2023-02-28T03:24:05;-2.90;5.00
3860;DHT22;1945;52.036;8.614;2023-02-28T03:26:36;-2.90;1.00
3860;DHT22;1945;52.036;8.614;2023-02-28T03:29:08;-2.40;1.00
3860;DHT22;1945;52.036;8.614;2023-02-28T03:31:40;-3.00;1.00
3860;DHT22;1945;52.036;8.614;2023-02-28T03:34:13;-2.50;1.00
3860;DHT22;1945;52.036;8.614;2023-02-28T03:36:47;-3.10;1.00
3860;DHT22;1945;52.036;8.614;2023-02-28T03:39:16;-3.10;1.00
3860;DHT22;1945;52.036;8.614;2023-02-28T03:41:47;-3.20;1.00
3860;DHT22;1945;52.036;8.614;2023-02-28T03:44:21;-2.60;1.00
3860;DHT22;1945;52.036;8.614;2023-02-28T03:46:53;-2.90;1.00
3860;DHT22;1945;52.036;8.614;2023-02-28T03:49:24;-3.20;1.00
3860;DHT22;1945;52.036;8.614;2023-02-28T03:51:56;-3.10;1.00
3860;DHT22;1945;52.036;8.614;2023-02-28T03:54:28;-2.70;1.00
3860;DHT22;1945;52.036;8.614;2023-02-28T03:57:00;-3.30;1.00
3860;DHT22;1945;52.036;8.614;2023-02-28T03:59:32;-3.30;1.00
3860;DHT22;1945;52.036;8.614;2023-02-28T04:02:01;-2.90;1.00
3860;DHT22;1945;52.036;8.614;2023-02-28T04:04:28;-3.30;1.00
3860;DHT22;1945;52.036;8.614;2023-02-28T04:07:03;-3.40;1.00
3860;DHT22;1945;52.036;8.614;2023-02-28T04:09:30;-3.40;1.00
3860;DHT22;1945;52.036;8.614;2023-02-28T04:11:57;-3.30;1.00
3860;DHT22;1945;52.036;8.614;2023-02-28T04:14:24;-2.90;1.00
3860;DHT22;1945;52.036;8.614;2023-02-28T04:16:51;-3.60;1.00
3860;DHT22;1945;52.036;8.614;2023-02-28T04:19:18;-3.50;1.00
3860;DHT22;1945;52.036;8.614;2023-02-28T04:21:47;-3.60;1.00
3860;DHT22;1945;52.036;8.614;2023-02-28T04:24:17;-3.10;1.00
3860;DHT22;1945;52.036;8.614;2023-02-28T04:26:46;-3.00;1.00
3860;DHT22;1945;52.036;8.614;2023-02-28T04:29:19;-3.10;1.00
3860;DHT22;1945;52.036;8.614;2023-02-28T04:31:46;-3.00;1.00
3860;DHT22;1945;52.036;8.614;2023-02-28T04:34:12;-3.10;1.00
3860;DHT22;1945;52.036;8.614;2023-02-28T04:36:39;-3.10;1.00
3860;DHT22;1945;52.036;8.614;2023-02-28T04:39:06;-3.00;1.00
3860;DHT22;1945;52.036;8.614;2023-02-28T04:41:34;-3.70;1.00
3860;DHT22;1945;52.036;8.614;2023-02-28T04:44:01;-3.10;1.00
3860;DHT22;1945;52.036;8.614;2023-02-28T04:46:27;-3.10;1.00
3860;DHT22;1945;52.036;8.614;2023-02-28T04:48:54;-3.20;1.00
3860;DHT22;1945;52.036;8.614;2023-02-28T04:51:21;-3.80;1.00
3860;DHT22;1945;52.036;8.614;2023-02-28T04:53:48;-3.20;1.00
3860;DHT22;1945;52.036;8.614;2023-02-28T04:56:17;-3.80;1.00
3860;DHT22;1945;52.036;8.614;2023-02-28T04:58:45;-3.10;1.00
3860;DHT22;1945;52.036;8.614;2023-02-28T05:01:23;-3.40;1.00
3860;DHT22;1945;52.036;8.614;2023-02-28T05:03:51;-3.70;1.00
3860;DHT22;1945;52.036;8.614;2023-02-28T05:06:21;-4.10;1.00
3860;DHT22;1945;52.036;8.614;2023-02-28T05:08:49;-4.00;1.00
3860;DHT22;1945;52.036;8.614;2023-02-28T05:11:19;-3.30;1.00
3860;DHT22;1945;52.036;8.614;2023-02-28T05:13:48;-3.50;1.00
3860;DHT22;1945;52.036;8.614;2023-02-28T05:16:15;-3.50;1.00
3860;DHT22;1945;52.036;8.614;2023-02-28T05:18:42;-4.00;1.00
3860;DHT22;1945;52.036;8.614;2023-02-28T05:21:23;-3.30;1.00
3860;DHT22;1945;52.036;8.614;2023-02-28T05:23:50;-4.10;1.00
3860;DHT22;1945;52.036;8.614;2023-02-28T05:26:17;-3.50;1.00
3860;DHT22;1945;52.036;8.614;2023-02-28T05:28:43;-3.30;1.00
3860;DHT22;1945;52.036;8.614;2023-02-28T05:31:11;-3.40;1.00
3860;DHT22;1945;52.036;8.614;2023-02-28T05:33:38;-4.00;1.00
3860;DHT22;1945;52.036;8.614;2023-02-28T05:36:06;-4.10;1.00
3860;DHT22;1945;52.036;8.614;2023-02-28T05:38:32;-4.20;1.00
3860;DHT22;1945;52.036;8.614;2023-02-28T05:40:59;-3.80;1.00
3860;DHT22;1945;52.036;8.614;2023-02-28T05:43:26;-4.20;1.00
3860;DHT22;1945;52.036;8.614;2023-02-28T05:45:52;-4.40;1.00
3860;DHT22;1945;52.036;8.614;2023-02-28T05:48:21;-3.80;1.00
3860;DHT22;1945;52.036;8.614;2023-02-28T05:50:47;-3.80;1.00
3860;DHT22;1945;52.036;8.614;2023-02-28T05:53:14;-3.60;1.00
3860;DHT22;1945;52.036;8.614;2023-02-28T05:55:41;-3.70;1.00
3860;DHT22;1945;52.036;8.614;2023-02-28T05:58:07;-4.30;1.00
3860;DHT22;1945;52.036;8.614;2023-02-28T06:00:34;-3.70;1.00
3860;DHT22;1945;52.036;8.614;2023-02-28T06:03:01;-4.30;1.00
3860;DHT22;1945;52.036;8.614;2023-02-28T06:05:29;-4.40;1.00
3860;DHT22;1945;52.036;8.614;2023-02-28T06:07:55;-4.40;1.00
3860;DHT22;1945;52.036;8.614;2023-02-28T06:10:22;-3.70;1.00
3860;DHT22;1945;52.036;8.614;2023-02-28T06:12:49;-3.80;1.00
3860;DHT22;1945;52.036;8.614;2023-02-28T06:15:16;-3.70;1.00
3860;DHT22;1945;52.036;8.614;2023-02-28T06:17:43;-4.40;1.00
3860;DHT22;1945;52.036;8.614;2023-02-28T06:20:12;-4.50;1.00
3860;DHT22;1945;52.036;8.614;2023-02-28T06:22:40;-3.90;1.00
3860;DHT22;1945;52.036;8.614;2023-02-28T06:25:08;-3.90;1.00
3860;DHT22;1945;52.036;8.614;2023-02-28T06:27:35;-4.40;1.00
3860;DHT22;1945;52.036;8.614;2023-02-28T06:30:02;-4.30;1.00
3860;DHT22;1945;52.036;8.614;2023-02-28T06:32:29;-4.40;1.00
3860;DHT22;1945;52.036;8.614;2023-02-28T06:34:55;-4.90;1.00
3860;DHT22;1945;52.036;8.614;2023-02-28T06:37:23;-3.90;1.00
3860;DHT22;1945;52.036;8.614;2023-02-28T06:39:53;-4.20;1.10
3860;DHT22;1945;52.036;8.614;2023-02-28T06:42:21;-3.60;28.30
3860;DHT22;1945;52.036;8.614;2023-02-28T06:44:50;-3.60;62.90
3860;DHT22;1945;52.036;8.614;2023-02-28T06:47:17;-3.60;99.90
3860;DHT22;1945;52.036;8.614;2023-02-28T06:49:43;-3.30;99.90
3860;DHT22;1945;52.036;8.614;2023-02-28T06:52:11;-3.10;99.90
3860;DHT22;1945;52.036;8.614;2023-02-28T06:54:37;-3.50;99.90
3860;DHT22;1945;52.036;8.614;2023-02-28T06:57:05;-2.70;80.00
3860;DHT22;1945;52.036;8.614;2023-02-28T06:59:32;-3.00;99.90
3860;DHT22;1945;52.036;8.614;2023-02-28T07:02:00;-2.80;99.90
3860;DHT22;1945;52.036;8.614;2023-02-28T07:04:27;-2.20;1.00
3860;DHT22;1945;52.036;8.614;2023-02-28T07:06:54;-2.40;1.00
3860;DHT22;1945;52.036;8.614;2023-02-28T07:09:21;-1.60;1.00
3860;DHT22;1945;52.036;8.614;2023-02-28T07:11:48;-1.40;1.00
3860;DHT22;1945;52.036;8.614;2023-02-28T07:14:16;-1.30;1.00
3860;DHT22;1945;52.036;8.614;2023-02-28T07:16:42;-1.20;1.00
3860;DHT22;1945;52.036;8.614;2023-02-28T07:19:10;-1.60;1.00
3860;DHT22;1945;52.036;8.614;2023-02-28T07:21:37;-1.40;1.00
3860;DHT22;1945;52.036;8.614;2023-02-28T07:24:04;-0.60;1.00
3860;DHT22;1945;52.036;8.614;2023-02-28T07:26:31;-1.10;1.00
3860;DHT22;1945;52.036;8.614;2023-02-28T07:28:59;-0.30;1.00
3860;DHT22;1945;52.036;8.614;2023-02-28T07:31:28;-0.60;1.00
3860;DHT22;1945;52.036;8.614;2023-02-28T07:33:54;0.20;1.00
3860;DHT22;1945;52.036;8.614;2023-02-28T07:36:21;0.10;1.00
3860;DHT22;1945;52.036;8.614;2023-02-28T07:38:48;0.20;1.00
3860;DHT22;1945;52.036;8.614;2023-02-28T07:41:16;0.50;99.90
3860;DHT22;1945;52.036;8.614;2023-02-28T07:43:43;0.10;99.90
3860;DHT22;1945;52.036;8.614;2023-02-28T07:46:12;0.30;99.90
3860;DHT22;1945;52.036;8.614;2023-02-28T07:48:41;0.40;99.90
3860;DHT22;1945;52.036;8.614;2023-02-28T07:51:09;0.70;99.90
3860;DHT22;1945;52.036;8.614;2023-02-28T07:53:36;0.90;99.90
3860;DHT22;1945;52.036;8.614;2023-02-28T07:56:03;1.00;99.90
3860;DHT22;1945;52.036;8.614;2023-02-28T07:58:31;1.20;99.90
3860;DHT22;1945;52.036;8.614;2023-02-28T08:01:05;1.40;18.20
3860;DHT22;1945;52.036;8.614;2023-02-28T08:03:31;1.50;1.00
3860;DHT22;1945;52.036;8.614;2023-02-28T08:05:59;1.50;1.00
3860;DHT22;1945;52.036;8.614;2023-02-28T08:08:27;1.70;1.00
3860;DHT22;1945;52.036;8.614;2023-02-28T08:10:58;1.80;1.00
3860;DHT22;1945;52.036;8.614;2023-02-28T08:13:25;2.40;1.00
3860;DHT22;1945;52.036;8.614;2023-02-28T08:15:53;1.50;1.00
3860;DHT22;1945;52.036;8.614;2023-02-28T08:18:20;1.70;1.00
3860;DHT22;1945;52.036;8.614;2023-02-28T08:20:46;1.80;1.00
3860;DHT22;1945;52.036;8.614;2023-02-28T08:23:14;1.90;1.00
3860;DHT22;1945;52.036;8.614;2023-02-28T08:25:41;2.10;1.00
3860;DHT22;1945;52.036;8.614;2023-02-28T08:28:08;2.30;1.00
3860;DHT22;1945;52.036;8.614;2023-02-28T08:30:35;2.30;99.90
3860;DHT22;1945;52.036;8.614;2023-02-28T08:33:01;2.30;1.00
3860;DHT22;1945;52.036;8.614;2023-02-28T08:35:28;2.40;1.00
3860;DHT22;1945;52.036;8.614;2023-02-28T08:37:55;2.50;1.00
3860;DHT22;1945;52.036;8.614;2023-02-28T08:40:23;2.60;99.90
3860;DHT22;1945;52.036;8.614;2023-02-28T08:42:50;2.70;99.90
3860;DHT22;1945;52.036;8.614;2023-02-28T08:45:16;2.70;99.90
3860;DHT22;1945;52.036;8.614;2023-02-28T08:47:43;2.70;99.90
3860;DHT22;1945;52.036;8.614;2023-02-28T08:50:10;2.80;99.90
3860;DHT22;1945;52.036;8.614;2023-02-28T08:52:42;2.70;99.90
3860;DHT22;1945;52.036;8.614;2023-02-28T08:55:09;2.80;99.90
3860;DHT22;1945;52.036;8.614;2023-02-28T08:57:37;2.70;99.90
3860;DHT22;1945;52.036;8.614;2023-02-28T09:00:04;2.70;99.90
3860;DHT22;1945;52.036;8.614;2023-02-28T09:02:31;2.80;99.90
3860;DHT22;1945;52.036;8.614;2023-02-28T09:04:58;2.80;99.90
3860;DHT22;1945;52.036;8.614;2023-02-28T09:07:25;2.70;99.90
3860;DHT22;1945;52.036;8.614;2023-02-28T09:09:51;2.60;99.90
3860;DHT22;1945;52.036;8.614;2023-02-28T09:12:22;2.60;99.90
3860;DHT22;1945;52.036;8.614;2023-02-28T09:14:50;2.60;99.90
3860;DHT22;1945;52.036;8.614;2023-02-28T09:17:17;2.70;99.90
3860;DHT22;1945;52.036;8.614;2023-02-28T09:19:44;2.70;44.90
3860;DHT22;1945;52.036;8.614;2023-02-28T09:22:11;2.70;72.50
3860;DHT22;1945;52.036;8.614;2023-02-28T09:24:38;2.70;12.30
3860;DHT22;1945;52.036;8.614;2023-02-28T09:27:05;2.70;33.80
3860;DHT22;1945;52.036;8.614;2023-02-28T09:29:33;2.40;74.20
3860;DHT22;1945;52.036;8.614;2023-02-28T09:32:02;2.30;77.30
3860;DHT22;1945;52.036;8.614;2023-02-28T09:34:31;2.30;78.80
3860;DHT22;1945;52.036;8.614;2023-02-28T09:36:57;2.30;99.90
3860;DHT22;1945;52.036;8.614;2023-02-28T09:39:24;2.30;99.90
3860;DHT22;1945;52.036;8.614;2023-02-28T09:41:52;2.30;99.90
3860;DHT22;1945;52.036;8.614;2023-02-28T09:44:26;2.40;99.90
3860;DHT22;1945;52.036;8.614;2023-02-28T09:46:57;2.50;99.90
3860;DHT22;1945;52.036;8.614;2023-02-28T09:49:33;2.70;99.90
3860;DHT22;1945;52.036;8.614;2023-02-28T09:52:03;2.60;99.90
3860;DHT22;1945;52.036;8.614;2023-02-28T09:54:34;2.70;92.30
3860;DHT22;1945;52.036;8.614;2023-02-28T09:57:04;2.80;99.90
3860;DHT22;1945;52.036;8.614;2023-02-28T09:59:41;2.80;1.00
3860;DHT22;1945;52.036;8.614;2023-02-28T10:02:19;2.80;1.00
3860;DHT22;1945;52.036;8.614;2023-02-28T10:04:51;3.00;11.80
3860;DHT22;1945;52.036;8.614;2023-02-28T10:07:37;3.00;1.00
3860;DHT22;1945;52.036;8.614;2023-02-28T10:10:19;3.10;1.00
3860;DHT22;1945;52.036;8.614;2023-02-28T10:12:47;3.20;1.00
3860;DHT22;1945;52.036;8.614;2023-02-28T10:15:15;3.10;1.00
3860;DHT22;1945;52.036;8.614;2023-02-28T10:17:47;3.20;1.00
3860;DHT22;1945;52.036;8.614;2023-02-28T10:20:20;3.10;1.00
3860;DHT22;1945;52.036;8.614;2023-02-28T10:23:00;3.30;1.00
3860;DHT22;1945;52.036;8.614;2023-02-28T10:25:34;3.30;1.00
3860;DHT22;1945;52.036;8.614;2023-02-28T10:28:05;3.40;1.00
3860;DHT22;1945;52.036;8.614;2023-02-28T10:30:34;3.50;1.00
3860;DHT22;1945;52.036;8.614;2023-02-28T10:33:01;3.80;1.00
3860;DHT22;1945;52.036;8.614;2023-02-28T10:35:29;4.00;1.00
3860;DHT22;1945;52.036;8.614;2023-02-28T10:37:59;3.70;1.00
3860;DHT22;1945;52.036;8.614;2023-02-28T10:40:32;4.20;1.00
3860;DHT22;1945;52.036;8.614;2023-02-28T10:43:02;3.70;1.00
3860;DHT22;1945;52.036;8.614;2023-02-28T10:45:30;4.00;1.00
3860;DHT22;1945;52.036;8.614;2023-02-28T10:47:58;3.40;1.00
3860;DHT22;1945;52.036;8.614;2023-02-28T10:50:34;3.30;1.00
3860;DHT22;1945;52.036;8.614;2023-02-28T10:53:24;3.70;1.00
3860;DHT22;1945;52.036;8.614;2023-02-28T10:55:59;3.30;1.00
3860;DHT22;1945;52.036;8.614;2023-02-28T10:58:29;3.30;1.00
3860;DHT22;1945;52.036;8.614;2023-02-28T11:00:56;3.30;1.00
3860;DHT22;1945;52.036;8.614;2023-02-28T11:03:33;3.30;1.00
3860;DHT22;1945;52.036;8.614;2023-02-28T11:06:07;3.20;1.00
3860;DHT22;1945;52.036;8.614;2023-02-28T11:08:34;3.30;1.00
3860;DHT22;1945;52.036;8.614;2023-02-28T11:11:09;3.20;1.00
3860;DHT22;1945;52.036;8.614;2023-02-28T11:13:36;3.20;1.00
3860;DHT22;1945;52.036;8.614;2023-02-28T11:16:05;3.20;1.00
3860;DHT22;1945;52.036;8.614;2023-02-28T11:18:37;3.20;1.00
3860;DHT22;1945;52.036;8.614;2023-02-28T11:21:07;3.40;1.00
3860;DHT22;1945;52.036;8.614;2023-02-28T11:23:36;3.50;1.00
3860;DHT22;1945;52.036;8.614;2023-02-28T11:26:06;3.60;1.00
3860;DHT22;1945;52.036;8.614;2023-02-28T11:28:37;3.70;1.00
3860;DHT22;1945;52.036;8.614;2023-02-28T11:31:15;3.60;1.00
3860;DHT22;1945;52.036;8.614;2023-02-28T11:33:46;3.80;1.00
3860;DHT22;1945;52.036;8.614;2023-02-28T11:36:19;3.70;1.00
3860;DHT22;1945;52.036;8.614;2023-02-28T11:38:50;4.10;1.00
3860;DHT22;1945;52.036;8.614;2023-02-28T11:41:35;3.60;1.00
3860;DHT22;1945;52.036;8.614;2023-02-28T11:44:21;3.60;1.00
3860;DHT22;1945;52.036;8.614;2023-02-28T11:46:51;3.60;1.00
3860;DHT22;1945;52.036;8.614;2023-02-28T11:49:32;3.70;1.00
3860;DHT22;1945;52.036;8.614;2023-02-28T11:52:09;3.80;1.00
3860;DHT22;1945;52.036;8.614;2023-02-28T11:54:56;3.90;1.00
3860;DHT22;1945;52.036;8.614;2023-02-28T11:57:35;3.90;1.00
3860;DHT22;1945;52.036;8.614;2023-02-28T12:00:11;3.90;1.00
3860;DHT22;1945;52.036;8.614;2023-02-28T12:02:54;4.00;1.00
3860;DHT22;1945;52.036;8.614;2023-02-28T12:05:30;4.10;1.00
3860;DHT22;1945;52.036;8.614;2023-02-28T12:08:06;4.70;1.00
3860;DHT22;1945;52.036;8.614;2023-02-28T12:10:44;4.10;1.00
3860;DHT22;1945;52.036;8.614;2023-02-28T12:13:20;4.20;1.00
3860;DHT22;1945;52.036;8.614;2023-02-28T12:16:07;4.10;1.00
3860;DHT22;1945;52.036;8.614;2023-02-28T12:18:51;4.10;1.00
3860;DHT22;1945;52.036;8.614;2023-02-28T12:21:29;4.10;1.00
3860;DHT22;1945;52.036;8.614;2023-02-28T12:24:11;4.20;1.00
3860;DHT22;1945;52.036;8.614;2023-02-28T12:26:44;4.10;1.00
3860;DHT22;1945;52.036;8.614;2023-02-28T12:29:16;4.20;1.00
3860;DHT22;1945;52.036;8.614;2023-02-28T12:31:48;4.20;1.00
3860;DHT22;1945;52.036;8.614;2023-02-28T12:34:19;4.10;1.00
3860;DHT22;1945;52.036;8.614;2023-02-28T12:36:47;4.20;1.00
3860;DHT22;1945;52.036;8.614;2023-02-28T12:39:20;4.30;1.00
3860;DHT22;1945;52.036;8.614;2023-02-28T12:41:53;4.30;1.00
3860;DHT22;1945;52.036;8.614;2023-02-28T12:44:23;4.40;1.00
3860;DHT22;1945;52.036;8.614;2023-02-28T12:46:56;4.50;1.00
3860;DHT22;1945;52.036;8.614;2023-02-28T12:49:29;4.50;1.00
3860;DHT22;1945;52.036;8.614;2023-02-28T12:51:59;4.50;1.00
3860;DHT22;1945;52.036;8.614;2023-02-28T12:54:31;4.40;1.00
3860;DHT22;1945;52.036;8.614;2023-02-28T12:57:06;4.50;1.00
3860;DHT22;1945;52.036;8.614;2023-02-28T12:59:39;4.50;1.00
3860;DHT22;1945;52.036;8.614;2023-02-28T13:02:39;4.50;1.00
3860;DHT22;1945;52.036;8.614;2023-02-28T13:05:24;4.50;1.00
3860;DHT22;1945;52.036;8.614;2023-02-28T13:08:08;4.60;1.00
3860;DHT22;1945;52.036;8.614;2023-02-28T13:10:43;4.50;1.00
3860;DHT22;1945;52.036;8.614;2023-02-28T13:13:15;4.60;1.00
3860;DHT22;1945;52.036;8.614;2023-02-28T13:15:58;4.50;1.00
3860;DHT22;1945;52.036;8.614;2023-02-28T13:18:32;4.50;1.00
3860;DHT22;1945;52.036;8.614;2023-02-28T13:21:00;4.50;1.00
3860;DHT22;1945;52.036;8.614;2023-02-28T13:29:30;4.60;1.00
3860;DHT22;1945;52.036;8.614;2023-02-28T13:32:33;4.70;1.00
3860;DHT22;1945;52.036;8.614;2023-02-28T13:35:36;4.60;1.00
3860;DHT22;1945;52.036;8.614;2023-02-28T13:38:16;4.70;1.00
3860;DHT22;1945;52.036;8.614;2023-02-28T13:40:43;4.90;1.00
3860;DHT22;1945;52.036;8.614;2023-02-28T13:43:12;4.70;1.00
3860;DHT22;1945;52.036;8.614;2023-02-28T13:46:05;4.70;1.00
3860;DHT22;1945;52.036;8.614;2023-02-28T13:48:33;4.70;1.00
3860;DHT22;1945;52.036;8.614;2023-02-28T13:50:59;4.70;1.00
3860;DHT22;1945;52.036;8.614;2023-02-28T13:53:42;4.90;1.00
3860;DHT22;1945;52.036;8.614;2023-02-28T13:56:36;4.70;1.00
3860;DHT22;1945;52.036;8.614;2023-02-28T13:59:18;4.70;1.00
3860;DHT22;1945;52.036;8.614;2023-02-28T14:02:03;5.20;1.00
3860;DHT22;1945;52.036;8.614;2023-02-28T14:05:01;4.40;1.00
3860;DHT22;1945;52.036;8.614;2023-02-28T14:07:30;4.70;1.00
3860;DHT22;1945;52.036;8.614;2023-02-28T14:10:03;4.60;1.00
3860;DHT22;1945;52.036;8.614;2023-02-28T14:12:53;4.60;1.00
3860;DHT22;1945;52.036;8.614;2023-02-28T14:18:32;4.70;1.00
3860;DHT22;1945;52.036;8.614;2023-02-28T14:21:09;4.70;1.00
3860;DHT22;1945;52.036;8.614;2023-02-28T14:27:07;4.60;1.00
3860;DHT22;1945;52.036;8.614;2023-02-28T14:30:14;4.60;1.00
3860;DHT22;1945;52.036;8.614;2023-02-28T14:32:47;4.70;1.00
3860;DHT22;1945;52.036;8.614;2023-02-28T14:35:39;4.60;1.00
3860;DHT22;1945;52.036;8.614;2023-02-28T14:38:16;4.60;1.00
3860;DHT22;1945;52.036;8.614;2023-02-28T14:40:47;4.60;1.00
3860;DHT22;1945;52.036;8.614;2023-02-28T14:43:20;4.60;1.00
3860;DHT22;1945;52.036;8.614;2023-02-28T14:45:50;4.60;1.00
3860;DHT22;1945;52.036;8.614;2023-02-28T14:48:19;4.60;1.00
3860;DHT22;1945;52.036;8.614;2023-02-28T14:50:49;4.60;1.00
3860;DHT22;1945;52.036;8.614;2023-02-28T14:53:19;4.60;1.00
3860;DHT22;1945;52.036;8.614;2023-02-28T14:55:47;4.60;1.00
3860;DHT22;1945;52.036;8.614;2023-02-28T14:58:22;4.60;1.00
3860;DHT22;1945;52.036;8.614;2023-02-28T15:00:52;4.60;1.00
3860;DHT22;1945;52.036;8.614;2023-02-28T15:03:23;4.70;1.00
3860;DHT22;1945;52.036;8.614;2023-02-28T15:05:54;4.70;1.00
3860;DHT22;1945;52.036;8.614;2023-02-28T15:08:21;4.60;1.00
3860;DHT22;1945;52.036;8.614;2023-02-28T15:10:54;4.60;1.00
3860;DHT22;1945;52.036;8.614;2023-02-28T15:13:23;4.60;1.00
3860;DHT22;1945;52.036;8.614;2023-02-28T15:15:52;4.60;1.00
3860;DHT22;1945;52.036;8.614;2023-02-28T15:18:30;5.00;1.00
3860;DHT22;1945;52.036;8.614;2023-02-28T15:20:58;4.50;1.00
3860;DHT22;1945;52.036;8.614;2023-02-28T15:23:26;4.50;1.00
3860;DHT22;1945;52.036;8.614;2023-02-28T15:25:54;4.50;1.00
3860;DHT22;1945;52.036;8.614;2023-02-28T15:28:22;4.50;1.00
3860;DHT22;1945;52.036;8.614;2023-02-28T15:30:52;4.50;1.00
3860;DHT22;1945;52.036;8.614;2023-02-28T15:33:22;4.50;1.00
3860;DHT22;1945;52.036;8.614;2023-02-28T15:35:50;4.40;1.00
3860;DHT22;1945;52.036;8.614;2023-02-28T15:38:22;4.50;1.00
3860;DHT22;1945;52.036;8.614;2023-02-28T15:40:51;4.40;1.00
3860;DHT22;1945;52.036;8.614;2023-02-28T15:43:24;4.40;1.00
3860;DHT22;1945;52.036;8.614;2023-02-28T15:45:52;4.30;1.00
3860;DHT22;1945;52.036;8.614;2023-02-28T15:48:22;4.40;1.00
3860;DHT22;1945;52.036;8.614;2023-02-28T15:50:52;4.40;1.00
3860;DHT22;1945;52.036;8.614;2023-02-28T15:53:22;4.30;1.00
3860;DHT22;1945;52.036;8.614;2023-02-28T15:55:55;4.30;1.00
3860;DHT22;1945;52.036;8.614;2023-02-28T15:58:24;4.30;1.00
3860;DHT22;1945;52.036;8.614;2023-02-28T16:01:05;4.30;1.00
3860;DHT22;1945;52.036;8.614;2023-02-28T16:03:39;4.20;1.00
3860;DHT22;1945;52.036;8.614;2023-02-28T16:06:36;4.20;1.00
3860;DHT22;1945;52.036;8.614;2023-02-28T16:09:04;4.20;1.00
3860;DHT22;1945;52.036;8.614;2023-02-28T16:11:34;4.20;1.00
3860;DHT22;1945;52.036;8.614;2023-02-28T16:14:04;4.20;1.00
3860;DHT22;1945;52.036;8.614;2023-02-28T16:16:31;4.10;1.00
3860;DHT22;1945;52.036;8.614;2023-02-28T16:18:59;4.10;1.00
3860;DHT22;1945;52.036;8.614;2023-02-28T16:21:26;4.10;1.00
3860;DHT22;1945;52.036;8.614;2023-02-28T16:23:54;4.10;1.00
3860;DHT22;1945;52.036;8.614;2023-02-28T16:26:23;4.10;1.00
3860;DHT22;1945;52.036;8.614;2023-02-28T16:28:51;4.00;1.00
3860;DHT22;1945;52.036;8.614;2023-02-28T16:31:18;4.00;1.00
3860;DHT22;1945;52.036;8.614;2023-02-28T16:33:45;4.40;1.00
3860;DHT22;1945;52.036;8.614;2023-02-28T16:36:17;3.90;1.00
3860;DHT22;1945;52.036;8.614;2023-02-28T16:38:44;3.90;1.00
3860;DHT22;1945;52.036;8.614;2023-02-28T16:41:16;3.80;1.00
3860;DHT22;1945;52.036;8.614;2023-02-28T16:43:46;3.80;1.00
3860;DHT22;1945;52.036;8.614;2023-02-28T16:46:17;3.70;1.00
3860;DHT22;1945;52.036;8.614;2023-02-28T16:48:44;3.70;1.00
3860;DHT22;1945;52.036;8.614;2023-02-28T16:51:12;3.60;1.00
3860;DHT22;1945;52.036;8.614;2023-02-28T16:53:39;3.50;1.00
3860;DHT22;1945;52.036;8.614;2023-02-28T16:56:06;3.50;1.00
3860;DHT22;1945;52.036;8.614;2023-02-28T16:58:34;3.40;1.00
3860;DHT22;1945;52.036;8.614;2023-02-28T17:01:01;3.30;1.00
3860;DHT22;1945;52.036;8.614;2023-02-28T17:03:29;3.30;1.00
3860;DHT22;1945;52.036;8.614;2023-02-28T17:05:55;3.20;1.00
3860;DHT22;1945;52.036;8.614;2023-02-28T17:08:22;3.10;1.00